ROMMA est une association bénévole à but non lucratif. Votre soutien est indispensable : ADHERER à ROMMA ou FAIRE un DON

Peyrus - (26, Drôme)

Vercors Ouest (430 m)   Longitude: 05°06'28"E   Latitude: 44°54'41"N Station partenaire n°83
 

Détail journalier du     <<     >>

Température Precipitation Humidité Pression Vent Dir Rafale Dir. rafale Second capteur de température situé à 410 m
Heure (°C) (mm) (%) (hPa) (km/h) (km/h) (°C)
01:00 6.305710175N24NNO5.6
02:00 3.906510163N18N3.9
03:00 2.707210165N19NNO2.8
04:00 1.707710161N13N1.1
05:00 0.70801016011NO0.0
06:00 1.007910161NNE13NNO1.1
07:00 0.307910163N13N0.6
08:00 -0.10821017011NNO-0.6
09:00 3.407310162N11NO2.8
10:00 5.406310178N23NNO5.0
11:00 6.3050101712N32NNO6.1
12:00 8.1044101713N37N7.8
13:00 8.6042101713N37NNO8.3
14:00 8.9043101716N34NNO9.4
15:00 9.6041101714N37NE10.0
16:00 9.6044101615N39NNO10.0
17:00 9.2045101616N39N10.0
18:00 8.7046101614N34N9.4
19:00 8.1048101715N32NNO8.3
20:00 7.6052101812N34N7.8
21:00 6.405610185N24NNE6.7
22:00 6.105710196N24N6.1
23:00 5.805810195N23N5.6
minuit 5.106110195N27NNO5.0

Graphique du 14-04-2019

 

Serveur OMMA